Stafford, NY

6:02 PM EDT on August 04, 2015 (GMT -0400)
West side of Stafford | | Change Station
CLOSE
Current Station
Personal Weather Station
Location: Batavia, NY
Elevation: 922 ft
Nearby Weather Stations

Elev 922 ft 42.99 °N, 78.11 °W | Updated 9 seconds ago

Partly Cloudy
Partly Cloudy
74.5 °F
Feels Like 77 °F
N
0.1
Wind Variable Wind from WNW
Gusts 1.3 mph

Today
High -- | Low -- °F
--% Chance of Precip.
Yesterday
High -- | Low -- °F
Precip. -- in
6:06 AM 8:30 PM
Waning Gibbous, 74% visible
Pressure 29.91 in
Visibility 10.0 miles
Clouds Few 3600 ft
Scattered Clouds 6500 ft
Overcast 12000 ft
Heat Index 77 °F
Dew Point 60 °F
Humidity 61%
Rainfall 0.00 in
Snow Depth Not available.
UV 0.0 out of 12
Pollen 6.80 out of 12
Air Quality Not available.
Flu Activity Not available.
METAR KROC 042154Z 34005KT 10SM FEW036 SCT065 OVC120 21/17 A2990 RMK AO2 RAE47 TSE35 SLP128 MOV NE CB DSNT NE MOV NE P0005 T02060167

More Conditions Fewer Conditions

Pressure 29.91 in
Visibility 10.0 miles
Clouds Few 3600 ft
Scattered Clouds 6500 ft
Overcast 12000 ft
Heat Index 77 °F
Dew Point 60 °F
Humidity 61%
Rainfall 0.00 in
Snow Depth Not available.
UV 0.0 out of 12
Pollen 6.80 out of 12
Air Quality Not available.
Flu Activity Not available.
METAR KROC 042154Z 34005KT 10SM FEW036 SCT065 OVC120 21/17 A2990 RMK AO2 RAE47 TSE35 SLP128 MOV NE CB DSNT NE MOV NE P0005 T02060167

More Conditions Fewer Conditions

10-Day Weather Forecast

×

Almanac

Astronomy

Aug. 04, 2015 Rise Set
Actual Time
Civil Twilight
Nautical Twilight
Astronomical Twilight
Moon
Length of Visible Light
Length of Day
Tomorrow will be .
, % of the Moon is Illuminated

Today's Extremes

State Highs State Lows

Community

WunderPhotos

Upload Photos

1,844,001 photos uploaded!

WunderBlogs® & News

Nearby

Air Quality

  Air Quality AQ Index Pollutant
Not available.

Snow Depth

Station Depth Elevation

Earthquake Activity

City Distance Mag. Time & Date
Minimum magnitude displayed is 2.5.

Coastal Water Temperatures

Place Temperature

Stations

Nearby Weather Stations

Station Location Temp. Windchill Dew Point Humidity Wind Precip. Elev Updated Type